Time;durP1;ratioP1;P1;durP2;ratioP2;P2;SDS_P1;SDS_P2;PMS_P1;PMS_P2;Temp;Humidity;BMP_temperature;BMP_pressure;BME280_temperature;BME280_humidity;BME280_pressure;Samples;Min_cycle;Max_cycle;Signal;HPM_P1;HPM_P2
2022/06/05 00:00:14;;;;;;;10.57;5.80;;;;;;;;;;5093095;28;20028;-67
2022/06/05 00:02:44;;;;;;;16.13;6.32;;;;;;;;;;5093372;28;20114;-68
2022/06/05 00:05:26;;;;;;;13.02;5.75;;;;;;;;;;5092832;28;20122;-69
2022/06/05 00:08:08;;;;;;;13.52;5.82;;;;;;;;;;5093032;28;20426;-68
2022/06/05 00:10:42;;;;;;;12.68;6.00;;;;;;;;;;5092882;28;20109;-68
2022/06/05 00:13:17;;;;;;;13.70;6.05;;;;;;;;;;5092476;28;20032;-69
2022/06/05 00:15:43;;;;;;;18.38;6.82;;;;;;;;;;5091956;28;20077;-67
2022/06/05 00:18:09;;;;;;;17.20;7.22;;;;;;;;;;5093081;28;20028;-67
2022/06/05 00:20:35;;;;;;;28.83;7.65;;;;;;;;;;5074032;28;20036;-68
2022/06/05 00:23:00;;;;;;;11.40;6.57;;;;;;;;;;5088745;28;20068;-67
2022/06/05 00:25:53;;;;;;;23.50;7.72;;;;;;;;;;5092595;28;20060;-68
2022/06/05 00:28:27;;;;;;;13.50;6.40;;;;;;;;;;5092911;28;20081;-68
2022/06/05 00:31:37;;;;;;;18.83;7.28;;;;;;;;;;5092514;28;20051;-67
2022/06/05 00:34:02;;;;;;;16.73;7.13;;;;;;;;;;5084481;28;20052;-67
2022/06/05 00:36:53;;;;;;;13.68;6.63;;;;;;;;;;5085715;28;20024;-69
2022/06/05 00:40:02;;;;;;;20.33;7.50;;;;;;;;;;5072376;28;20407;-67
2022/06/05 00:42:31;;;;;;;14.90;7.03;;;;;;;;;;5059502;28;20052;-68
2022/06/05 00:45:01;;;;;;;14.18;6.78;;;;;;;;;;5091911;28;20113;-68
2022/06/05 00:47:32;;;;;;;14.07;6.25;;;;;;;;;;5092454;28;20067;-68
2022/06/05 00:50:04;;;;;;;16.42;7.03;;;;;;;;;;5092249;28;20036;-69
2022/06/05 00:52:35;;;;;;;13.20;6.63;;;;;;;;;;5092171;28;20039;-69
2022/06/05 00:55:02;;;;;;;13.48;6.30;;;;;;;;;;5077083;28;20537;-68
2022/06/05 00:57:30;;;;;;;15.77;5.93;;;;;;;;;;5072138;28;20031;-67
2022/06/05 00:59:58;;;;;;;14.15;6.28;;;;;;;;;;5071140;28;20040;-67
2022/06/05 01:02:24;;;;;;;20.85;6.93;;;;;;;;;;5072074;28;20051;-67
2022/06/05 01:04:51;;;;;;;13.20;7.18;;;;;;;;;;5071945;28;20032;-67
2022/06/05 01:07:18;;;;;;;13.93;6.50;;;;;;;;;;5071596;28;20135;-67
2022/06/05 01:09:46;;;;;;;8.43;5.60;;;;;;;;;;5071527;28;20387;-68
2022/06/05 01:12:18;;;;;;;14.60;5.85;;;;;;;;;;5071788;28;20020;-69
2022/06/05 01:14:56;;;;;;;14.95;6.20;;;;;;;;;;5071879;28;20075;-68
2022/06/05 01:17:39;;;;;;;17.67;6.82;;;;;;;;;;5071662;28;20032;-67
2022/06/05 01:20:34;;;;;;;17.40;6.32;;;;;;;;;;5071386;28;20146;-67
2022/06/05 01:23:27;;;;;;;13.85;6.15;;;;;;;;;;5071298;28;20043;-67
2022/06/05 01:26:37;;;;;;;15.35;7.30;;;;;;;;;;5070358;28;20047;-67
2022/06/05 01:29:07;;;;;;;13.25;6.88;;;;;;;;;;5029234;28;20180;-67
2022/06/05 01:31:44;;;;;;;16.48;7.78;;;;;;;;;;5029453;28;20033;-68
2022/06/05 01:34:21;;;;;;;15.60;7.82;;;;;;;;;;5055291;28;20044;-67
2022/06/05 01:37:09;;;;;;;22.25;9.30;;;;;;;;;;5071691;28;20029;-67
2022/06/05 01:39:40;;;;;;;16.58;8.82;;;;;;;;;;5071896;28;20033;-68
2022/06/05 01:42:12;;;;;;;18.95;8.55;;;;;;;;;;5071596;28;20029;-68
2022/06/05 01:44:43;;;;;;;17.27;8.60;;;;;;;;;;5071371;28;20530;-67
2022/06/05 01:47:20;;;;;;;16.77;8.20;;;;;;;;;;5071385;28;20036;-69
2022/06/05 01:49:50;;;;;;;11.25;7.53;;;;;;;;;;5071395;28;20028;-68
2022/06/05 01:52:52;;;;;;;16.27;8.05;;;;;;;;;;5071256;28;20025;-68
2022/06/05 01:55:30;;;;;;;19.48;8.23;;;;;;;;;;5042087;28;20093;-68
2022/06/05 01:58:01;;;;;;;14.23;7.63;;;;;;;;;;5091809;28;20024;-68
2022/06/05 02:00:27;;;;;;;15.35;8.10;;;;;;;;;;5091950;28;20398;-69
2022/06/05 02:03:06;;;;;;;17.67;8.90;;;;;;;;;;5094014;28;20023;-69
2022/06/05 02:05:43;;;;;;;14.70;7.88;;;;;;;;;;5095186;28;20040;-70
2022/06/05 02:08:20;;;;;;;18.92;8.23;;;;;;;;;;5078559;28;20028;-68
2022/06/05 02:11:19;;;;;;;11.77;7.47;;;;;;;;;;5075004;28;20036;-67
2022/06/05 02:13:45;;;;;;;16.83;8.15;;;;;;;;;;5074977;28;20025;-67
2022/06/05 02:16:11;;;;;;;19.73;8.00;;;;;;;;;;5075150;28;20039;-68
2022/06/05 02:18:37;;;;;;;10.55;7.65;;;;;;;;;;5074614;28;20071;-68
2022/06/05 02:21:04;;;;;;;17.15;8.10;;;;;;;;;;5074662;28;20068;-68
2022/06/05 02:23:36;;;;;;;17.05;7.90;;;;;;;;;;5074934;28;20040;-68
2022/06/05 02:26:03;;;;;;;15.40;7.30;;;;;;;;;;5074954;28;20055;-68
2022/06/05 02:28:29;;;;;;;14.15;7.15;;;;;;;;;;5074836;28;20526;-68
2022/06/05 02:31:14;;;;;;;9.73;6.70;;;;;;;;;;5074652;28;20062;-68
2022/06/05 02:33:48;;;;;;;13.88;6.53;;;;;;;;;;5074487;28;20067;-70
2022/06/05 02:36:20;;;;;;;14.20;6.95;;;;;;;;;;5074195;28;20059;-68
2022/06/05 02:39:27;;;;;;;11.65;6.70;;;;;;;;;;5074472;28;20086;-69
2022/06/05 02:42:36;;;;;;;15.15;7.28;;;;;;;;;;5074543;28;20466;-68
2022/06/05 02:45:18;;;;;;;16.23;7.75;;;;;;;;;;5063687;28;20371;-68
2022/06/05 02:48:03;;;;;;;12.60;7.07;;;;;;;;;;5074366;28;20078;-68
2022/06/05 02:50:34;;;;;;;15.75;6.85;;;;;;;;;;5074249;28;20048;-68
2022/06/05 02:53:03;;;;;;;14.90;6.38;;;;;;;;;;5074177;28;20044;-69
2022/06/05 02:55:29;;;;;;;15.90;7.10;;;;;;;;;;5074179;28;20155;-69
2022/06/05 02:57:56;;;;;;;18.98;7.57;;;;;;;;;;5074415;28;20128;-67
2022/06/05 03:00:25;;;;;;;16.42;7.60;;;;;;;;;;5074195;28;20016;-67
2022/06/05 03:05:38;;;;;;;21.80;8.50;;;;;;;;;;5073952;28;20037;-68
2022/06/05 03:08:06;;;;;;;18.10;8.05;;;;;;;;;;5074230;28;20024;-67
2022/06/05 03:10:32;;;;;;;12.32;7.00;;;;;;;;;;5074050;28;20036;-68
2022/06/05 03:12:58;;;;;;;17.70;7.45;;;;;;;;;;5072928;28;20391;-68
2022/06/05 03:15:24;;;;;;;17.90;7.72;;;;;;;;;;5073576;28;20028;-68
2022/06/05 03:17:49;;;;;;;18.08;7.88;;;;;;;;;;5073588;28;20024;-68
2022/06/05 03:20:16;;;;;;;18.85;7.60;;;;;;;;;;5073275;28;20045;-68
2022/06/05 03:22:42;;;;;;;17.48;6.95;;;;;;;;;;5087693;28;20154;-68
2022/06/05 03:25:11;;;;;;;11.63;7.10;;;;;;;;;;5093685;28;20044;-67
2022/06/05 03:27:37;;;;;;;12.75;6.65;;;;;;;;;;5094127;28;20418;-68
2022/06/05 03:30:03;;;;;;;15.52;7.03;;;;;;;;;;5093723;28;20042;-68
2022/06/05 03:32:30;;;;;;;14.02;6.45;;;;;;;;;;5093404;28;20028;-68
2022/06/05 03:34:56;;;;;;;19.90;7.82;;;;;;;;;;5093168;28;20058;-68
2022/06/05 03:37:22;;;;;;;19.33;7.90;;;;;;;;;;5093325;28;20020;-68
2022/06/05 03:39:48;;;;;;;13.32;7.13;;;;;;;;;;5092931;28;20047;-66
2022/06/05 03:42:14;;;;;;;12.82;6.53;;;;;;;;;;5092986;28;20031;-70
2022/06/05 03:44:42;;;;;;;15.73;7.10;;;;;;;;;;5093243;28;20043;-69
2022/06/05 03:47:09;;;;;;;14.32;7.95;;;;;;;;;;5093058;28;20085;-68
2022/06/05 03:49:36;;;;;;;20.13;7.55;;;;;;;;;;5093484;28;20032;-68
2022/06/05 03:52:04;;;;;;;13.05;6.78;;;;;;;;;;5093039;28;20020;-68
2022/06/05 03:54:31;;;;;;;10.75;6.80;;;;;;;;;;5091068;28;20044;-68
2022/06/05 03:56:57;;;;;;;16.27;6.60;;;;;;;;;;5093218;28;20016;-68
2022/06/05 03:59:23;;;;;;;10.93;6.07;;;;;;;;;;5092808;28;20089;-67
2022/06/05 04:01:48;;;;;;;12.05;6.45;;;;;;;;;;5092141;28;20043;-68
2022/06/05 04:04:15;;;;;;;13.30;5.75;;;;;;;;;;5092113;28;20129;-67
2022/06/05 04:06:41;;;;;;;18.95;6.88;;;;;;;;;;5092117;28;20536;-67
2022/06/05 04:09:07;;;;;;;11.25;5.57;;;;;;;;;;5092066;28;20403;-67
2022/06/05 04:11:36;;;;;;;13.90;6.55;;;;;;;;;;5092028;28;20094;-67
2022/06/05 04:14:03;;;;;;;14.05;6.55;;;;;;;;;;5091665;28;20626;-67
2022/06/05 04:16:30;;;;;;;11.48;5.93;;;;;;;;;;5093415;28;20020;-68
2022/06/05 04:18:57;;;;;;;12.65;6.00;;;;;;;;;;5093402;28;20032;-69
2022/06/05 04:21:28;;;;;;;13.05;6.15;;;;;;;;;;5093621;28;20067;-67
2022/06/05 04:23:54;;;;;;;10.75;6.18;;;;;;;;;;5093713;28;20050;-67
2022/06/05 04:26:24;;;;;;;13.48;6.25;;;;;;;;;;5093695;28;20024;-68
2022/06/05 04:28:52;;;;;;;12.63;6.07;;;;;;;;;;5093908;28;20470;-67
2022/06/05 04:31:20;;;;;;;13.48;5.97;;;;;;;;;;5093797;28;20028;-69
2022/06/05 04:33:47;;;;;;;11.05;6.10;;;;;;;;;;5093643;28;20474;-69
2022/06/05 04:36:13;;;;;;;11.82;5.80;;;;;;;;;;5093437;28;20070;-67
2022/06/05 04:38:40;;;;;;;13.48;6.03;;;;;;;;;;5086455;28;20060;-68
2022/06/05 04:41:06;;;;;;;10.27;5.47;;;;;;;;;;5080169;28;20032;-68
2022/06/05 04:43:33;;;;;;;10.30;5.72;;;;;;;;;;5073032;28;20095;-68
2022/06/05 04:45:58;;;;;;;16.38;6.22;;;;;;;;;;5073060;28;20028;-68
2022/06/05 04:48:24;;;;;;;14.80;5.35;;;;;;;;;;5072618;28;20035;-67
2022/06/05 04:50:50;;;;;;;12.68;5.30;;;;;;;;;;5072505;28;20431;-67
2022/06/05 04:53:16;;;;;;;13.20;4.97;;;;;;;;;;5072699;28;20390;-70
2022/06/05 04:55:42;;;;;;;9.23;5.53;;;;;;;;;;5072620;28;20028;-69
2022/06/05 04:58:08;;;;;;;11.32;5.88;;;;;;;;;;5072444;28;20043;-67
2022/06/05 05:00:33;;;;;;;13.02;5.50;;;;;;;;;;5072508;28;20033;-67
2022/06/05 05:02:59;;;;;;;10.80;5.95;;;;;;;;;;5072523;28;20078;-67
2022/06/05 05:05:25;;;;;;;14.98;6.28;;;;;;;;;;5072684;28;20403;-66
2022/06/05 05:07:51;;;;;;;16.98;5.78;;;;;;;;;;5072626;28;20086;-68
2022/06/05 05:10:17;;;;;;;16.42;5.55;;;;;;;;;;5072302;28;20028;-68
2022/06/05 05:12:43;;;;;;;11.20;5.30;;;;;;;;;;5072486;28;20162;-68
2022/06/05 05:15:10;;;;;;;9.65;5.20;;;;;;;;;;5072639;28;20103;-68
2022/06/05 05:17:36;;;;;;;7.75;4.82;;;;;;;;;;5072629;28;20047;-68
2022/06/05 05:20:02;;;;;;;17.13;6.07;;;;;;;;;;5072086;28;20032;-68
2022/06/05 05:22:28;;;;;;;14.38;5.70;;;;;;;;;;5072491;28;20029;-69
2022/06/05 05:24:53;;;;;;;9.27;5.60;;;;;;;;;;5072686;28;20029;-68
2022/06/05 05:27:20;;;;;;;10.60;5.55;;;;;;;;;;5072589;28;20105;-68
2022/06/05 05:29:46;;;;;;;9.43;5.57;;;;;;;;;;5072429;28;20016;-68
2022/06/05 05:32:12;;;;;;;9.20;5.65;;;;;;;;;;5072332;28;20090;-68
2022/06/05 05:34:38;;;;;;;11.93;5.57;;;;;;;;;;5072694;28;20028;-69
2022/06/05 05:37:04;;;;;;;13.18;5.97;;;;;;;;;;5073949;28;20064;-69
2022/06/05 05:42:15;;;;;;;11.57;5.90;;;;;;;;;;5076352;28;20036;-68
2022/06/05 05:44:43;;;;;;;9.82;5.38;;;;;;;;;;5076374;28;20023;-68
2022/06/05 05:47:17;;;;;;;13.13;6.38;;;;;;;;;;5076344;28;20031;-68
2022/06/05 05:49:43;;;;;;;16.67;6.30;;;;;;;;;;5076253;28;20520;-68
2022/06/05 05:52:09;;;;;;;11.40;5.80;;;;;;;;;;5074877;28;20055;-68
2022/06/05 05:54:36;;;;;;;10.27;6.00;;;;;;;;;;5079687;28;20044;-68
2022/06/05 05:57:03;;;;;;;11.05;5.72;;;;;;;;;;5082172;28;20113;-68
2022/06/05 05:59:29;;;;;;;16.30;5.93;;;;;;;;;;5076035;28;20426;-68
2022/06/05 06:01:54;;;;;;;12.15;5.70;;;;;;;;;;5074297;28;20021;-67
2022/06/05 06:04:20;;;;;;;9.15;5.30;;;;;;;;;;5073790;28;20051;-73
2022/06/05 06:06:50;;;;;;;10.82;5.88;;;;;;;;;;5094342;28;20024;-67
2022/06/05 06:09:17;;;;;;;9.00;5.68;;;;;;;;;;5095469;28;20028;-70
2022/06/05 06:11:43;;;;;;;11.02;5.60;;;;;;;;;;5095636;28;20024;-68
2022/06/05 06:14:09;;;;;;;15.80;5.95;;;;;;;;;;5096092;28;20107;-67
2022/06/05 06:16:35;;;;;;;9.27;5.07;;;;;;;;;;5095995;28;20056;-68
2022/06/05 06:19:01;;;;;;;10.30;5.55;;;;;;;;;;5094562;28;20068;-69
2022/06/05 06:21:28;;;;;;;12.02;5.22;;;;;;;;;;5095497;28;20047;-68
2022/06/05 06:23:54;;;;;;;7.03;5.20;;;;;;;;;;5095843;28;20028;-70
2022/06/05 06:26:20;;;;;;;11.65;5.15;;;;;;;;;;5095704;28;20488;-70
2022/06/05 06:28:46;;;;;;;13.60;5.63;;;;;;;;;;5095849;28;20024;-69
2022/06/05 06:31:15;;;;;;;10.65;5.20;;;;;;;;;;5095801;28;20050;-69
2022/06/05 06:33:43;;;;;;;9.05;5.97;;;;;;;;;;5095704;28;20064;-69
2022/06/05 06:36:11;;;;;;;13.40;6.00;;;;;;;;;;5095743;28;20031;-69
2022/06/05 06:38:37;;;;;;;9.85;5.30;;;;;;;;;;5095314;28;20325;-69
2022/06/05 06:41:06;;;;;;;13.00;5.25;;;;;;;;;;5095241;28;20024;-69
2022/06/05 06:43:33;;;;;;;6.63;5.03;;;;;;;;;;5095229;28;20032;-68
2022/06/05 06:45:59;;;;;;;12.30;6.03;;;;;;;;;;5095118;28;20020;-68
2022/06/05 06:48:26;;;;;;;8.88;5.85;;;;;;;;;;5094929;28;20043;-69
2022/06/05 06:50:53;;;;;;;8.82;4.95;;;;;;;;;;5095440;28;20024;-68
2022/06/05 06:53:20;;;;;;;10.35;5.38;;;;;;;;;;5095067;28;20054;-67
2022/06/05 06:55:46;;;;;;;12.20;5.55;;;;;;;;;;5095292;28;20028;-69
2022/06/05 06:58:12;;;;;;;9.13;4.90;;;;;;;;;;5093989;28;20033;-68
2022/06/05 07:00:38;;;;;;;12.93;5.55;;;;;;;;;;5095157;28;20020;-71
2022/06/05 07:03:04;;;;;;;13.20;5.53;;;;;;;;;;5094880;28;20035;-70
2022/06/05 07:05:31;;;;;;;8.27;5.18;;;;;;;;;;5095070;28;20427;-68
2022/06/05 07:07:57;;;;;;;7.70;5.40;;;;;;;;;;5094789;28;20044;-74
2022/06/05 07:10:24;;;;;;;12.25;5.40;;;;;;;;;;5093666;28;20094;-76
2022/06/05 07:12:50;;;;;;;10.88;5.07;;;;;;;;;;5094398;28;20516;-75
2022/06/05 07:15:16;;;;;;;9.38;5.22;;;;;;;;;;5094524;28;20044;-71
2022/06/05 07:17:41;;;;;;;7.82;5.10;;;;;;;;;;5094367;28;20116;-67
2022/06/05 07:20:08;;;;;;;13.35;4.97;;;;;;;;;;5094315;28;20128;-69
2022/06/05 07:22:34;;;;;;;9.75;4.97;;;;;;;;;;5093003;28;20036;-69
2022/06/05 07:25:00;;;;;;;10.93;4.65;;;;;;;;;;5094014;28;20032;-68
2022/06/05 07:27:28;;;;;;;12.30;5.53;;;;;;;;;;5094255;28;20064;-68
2022/06/05 07:29:54;;;;;;;9.68;5.30;;;;;;;;;;5094215;28;20532;-69
2022/06/05 07:32:21;;;;;;;7.40;4.65;;;;;;;;;;5094371;28;20024;-68
2022/06/05 07:34:47;;;;;;;12.32;4.88;;;;;;;;;;5094270;28;20028;-68
2022/06/05 07:37:13;;;;;;;9.55;4.88;;;;;;;;;;5094088;28;20494;-68
2022/06/05 07:39:40;;;;;;;11.05;5.07;;;;;;;;;;5094251;28;20035;-68
2022/06/05 07:42:07;;;;;;;10.52;4.97;;;;;;;;;;5093973;28;20123;-68
2022/06/05 07:44:33;;;;;;;10.43;5.07;;;;;;;;;;5092459;28;20035;-67
2022/06/05 07:47:06;;;;;;;7.90;4.85;;;;;;;;;;5094066;28;20028;-67
2022/06/05 07:49:34;;;;;;;9.38;4.93;;;;;;;;;;5093951;28;20494;-68
2022/06/05 07:54:46;;;;;;;12.95;5.18;;;;;;;;;;5093843;28;20039;-69
2022/06/05 07:57:14;;;;;;;9.05;4.88;;;;;;;;;;5075152;28;20020;-69
2022/06/05 07:59:42;;;;;;;9.75;5.20;;;;;;;;;;5092791;28;20478;-68
2022/06/05 08:02:12;;;;;;;12.02;4.82;;;;;;;;;;5093495;28;20178;-69
2022/06/05 08:04:39;;;;;;;16.17;4.93;;;;;;;;;;5093338;28;20424;-68
2022/06/05 08:07:07;;;;;;;15.23;4.78;;;;;;;;;;5093291;28;20530;-69
2022/06/05 08:09:37;;;;;;;7.75;4.80;;;;;;;;;;5093277;28;20032;-69
2022/06/05 08:12:06;;;;;;;8.48;4.90;;;;;;;;;;5093433;28;20081;-69
2022/06/05 08:14:34;;;;;;;8.35;4.65;;;;;;;;;;5092576;28;20065;-71
2022/06/05 08:17:04;;;;;;;10.93;4.97;;;;;;;;;;5092355;28;20036;-69
2022/06/05 08:19:34;;;;;;;10.70;5.28;;;;;;;;;;5093423;28;20032;-70
2022/06/05 08:22:04;;;;;;;10.00;5.00;;;;;;;;;;5092038;28;20040;-68
2022/06/05 08:24:29;;;;;;;8.32;4.47;;;;;;;;;;5093922;28;20111;-69
2022/06/05 08:26:56;;;;;;;19.83;5.40;;;;;;;;;;5093817;28;20532;-71
2022/06/05 08:29:22;;;;;;;10.15;5.00;;;;;;;;;;5095080;28;20390;-67
2022/06/05 08:31:48;;;;;;;12.15;4.80;;;;;;;;;;5091416;28;20063;-69
2022/06/05 08:34:15;;;;;;;11.43;5.40;;;;;;;;;;5092993;28;20099;-67
2022/06/05 08:36:41;;;;;;;8.90;4.30;;;;;;;;;;5092971;28;20036;-68
2022/06/05 08:42:11;;;;;;;11.13;4.43;;;;;;;;;;5086676;28;20039;-72
2022/06/05 08:44:46;;;;;;;9.73;4.75;;;;;;;;;;5082594;28;20032;-72
2022/06/05 08:47:12;;;;;;;11.05;4.75;;;;;;;;;;5072532;28;20055;-79
2022/06/05 08:49:53;;;;;;;9.75;5.00;;;;;;;;;;5072133;28;20048;-68
2022/06/05 08:52:51;;;;;;;11.77;4.65;;;;;;;;;;5080269;28;20051;-68
2022/06/05 08:55:42;;;;;;;7.10;4.70;;;;;;;;;;5081684;28;20100;-69
2022/06/05 08:58:17;;;;;;;12.52;4.63;;;;;;;;;;5092622;28;20089;-69
2022/06/05 09:01:00;;;;;;;6.93;4.55;;;;;;;;;;5092830;28;20028;-68
2022/06/05 09:03:31;;;;;;;11.05;4.53;;;;;;;;;;5092699;28;20368;-72
2022/06/05 09:06:12;;;;;;;13.15;4.80;;;;;;;;;;5092752;28;20043;-69
2022/06/05 09:08:42;;;;;;;7.10;4.75;;;;;;;;;;5090905;28;20051;-68
2022/06/05 09:11:34;;;;;;;7.32;4.40;;;;;;;;;;5076805;28;20021;-69
2022/06/05 09:13:59;;;;;;;7.05;4.60;;;;;;;;;;5091022;28;20040;-71
2022/06/05 09:16:29;;;;;;;12.15;4.80;;;;;;;;;;5091357;28;20036;-67
2022/06/05 09:18:57;;;;;;;8.13;5.05;;;;;;;;;;5091065;28;20028;-68
2022/06/05 09:21:25;;;;;;;10.02;4.82;;;;;;;;;;5082244;28;20040;-68
2022/06/05 09:24:00;;;;;;;10.63;5.13;;;;;;;;;;5072144;28;20032;-69
2022/06/05 09:26:44;;;;;;;9.52;4.78;;;;;;;;;;5072007;28;20044;-68
2022/06/05 09:29:42;;;;;;;8.40;4.82;;;;;;;;;;5071856;28;20068;-68
2022/06/05 09:32:38;;;;;;;9.00;4.80;;;;;;;;;;5071836;28;20433;-68
2022/06/05 09:35:13;;;;;;;6.15;4.65;;;;;;;;;;5072410;28;20044;-68
2022/06/05 09:37:54;;;;;;;10.98;4.90;;;;;;;;;;5072444;28;20117;-68
2022/06/05 09:40:25;;;;;;;9.45;4.80;;;;;;;;;;5081481;28;20020;-69
2022/06/05 09:43:13;;;;;;;6.47;4.37;;;;;;;;;;5090876;28;20153;-67
2022/06/05 09:46:08;;;;;;;10.40;5.47;;;;;;;;;;5091427;28;20330;-67
2022/06/05 09:49:06;;;;;;;8.57;4.85;;;;;;;;;;5092085;28;20123;-67
2022/06/05 09:51:35;;;;;;;12.30;4.63;;;;;;;;;;5089304;28;20542;-68
2022/06/05 09:54:15;;;;;;;8.40;4.72;;;;;;;;;;5092460;28;20478;-68
2022/06/05 10:00:28;;;;;;;9.57;4.60;;;;;;;;;;5053539;28;20052;-68
2022/06/05 10:03:01;;;;;;;7.00;4.97;;;;;;;;;;5092609;28;20021;-67
2022/06/05 10:05:31;;;;;;;9.93;4.88;;;;;;;;;;5092205;28;20467;-68
2022/06/05 10:08:17;;;;;;;11.52;4.78;;;;;;;;;;5092384;28;20390;-69
2022/06/05 10:10:45;;;;;;;11.13;4.45;;;;;;;;;;5092497;28;20470;-68
2022/06/05 10:13:30;;;;;;;9.10;4.30;;;;;;;;;;5092438;28;20048;-70
2022/06/05 10:16:06;;;;;;;10.85;4.65;;;;;;;;;;5092561;28;20032;-69
2022/06/05 10:18:45;;;;;;;10.20;5.13;;;;;;;;;;5092442;28;20035;-70
2022/06/05 10:21:12;;;;;;;10.77;4.68;;;;;;;;;;5092225;28;20040;-73
2022/06/05 10:23:42;;;;;;;12.82;4.75;;;;;;;;;;5094854;28;20089;-71
2022/06/05 10:26:20;;;;;;;7.15;4.88;;;;;;;;;;5096331;28;20047;-68
2022/06/05 10:28:50;;;;;;;7.65;4.45;;;;;;;;;;5094913;28;20063;-74
2022/06/05 10:31:22;;;;;;;9.50;4.63;;;;;;;;;;5094564;28;20112;-68
2022/06/05 10:33:53;;;;;;;8.57;4.65;;;;;;;;;;5096044;28;20089;-69
2022/06/05 10:36:25;;;;;;;9.18;4.80;;;;;;;;;;5094302;28;20085;-68
2022/06/05 10:39:11;;;;;;;8.98;4.63;;;;;;;;;;5095717;28;20036;-67
2022/06/05 10:41:40;;;;;;;12.30;4.97;;;;;;;;;;5095034;28;20043;-67
2022/06/05 10:44:19;;;;;;;8.95;4.97;;;;;;;;;;5095483;28;20137;-67
2022/06/05 10:46:59;;;;;;;13.77;5.53;;;;;;;;;;5095420;28;20046;-68
2022/06/05 10:49:43;;;;;;;9.75;5.20;;;;;;;;;;5095573;28;20024;-67
2022/06/05 10:52:36;;;;;;;9.82;5.10;;;;;;;;;;5095371;28;20028;-68
2022/06/05 10:55:38;;;;;;;7.75;4.55;;;;;;;;;;5087602;28;20071;-68
2022/06/05 10:58:18;;;;;;;10.70;4.50;;;;;;;;;;5095427;28;20115;-69
2022/06/05 11:00:50;;;;;;;9.27;4.43;;;;;;;;;;5095288;28;20034;-70
2022/06/05 11:03:34;;;;;;;11.52;7.60;;;;;;;;;;5094985;28;20036;-68
2022/06/05 11:06:35;;;;;;;10.25;4.25;;;;;;;;;;5095075;28;20043;-66
2022/06/05 11:09:04;;;;;;;10.02;4.00;;;;;;;;;;5095395;28;20032;-68
2022/06/05 11:15:01;;;;;;;7.03;3.75;;;;;;;;;;5094903;28;20165;-66
2022/06/05 11:17:51;;;;;;;11.45;4.63;;;;;;;;;;5095250;28;20032;-68
2022/06/05 11:20:21;;;;;;;9.23;4.07;;;;;;;;;;5094034;28;20051;-68
2022/06/05 11:22:58;;;;;;;9.82;4.43;;;;;;;;;;5095155;28;20118;-67
2022/06/05 11:25:30;;;;;;;8.13;4.60;;;;;;;;;;5094927;28;20050;-67
2022/06/05 11:28:25;;;;;;;10.32;5.53;;;;;;;;;;5094787;28;20062;-68
2022/06/05 11:31:08;;;;;;;9.15;3.97;;;;;;;;;;5094901;28;20032;-67
2022/06/05 11:33:42;;;;;;;6.45;4.15;;;;;;;;;;5094568;28;20024;-68
2022/06/05 11:36:27;;;;;;;7.88;4.30;;;;;;;;;;5094394;28;20063;-67
2022/06/05 11:39:24;;;;;;;10.60;4.40;;;;;;;;;;5094976;28;20470;-68
2022/06/05 11:42:02;;;;;;;8.30;3.97;;;;;;;;;;5094442;28;20032;-67
2022/06/05 11:44:37;;;;;;;10.48;4.55;;;;;;;;;;5094414;28;20466;-67
2022/06/05 11:47:25;;;;;;;9.88;3.90;;;;;;;;;;5094660;28;20491;-69
2022/06/05 11:50:30;;;;;;;6.65;3.55;;;;;;;;;;5093430;28;20028;-69
2022/06/05 11:53:20;;;;;;;6.53;3.83;;;;;;;;;;5093366;28;20039;-68
2022/06/05 11:56:17;;;;;;;8.05;3.90;;;;;;;;;;5094629;28;20084;-71
2022/06/05 11:58:52;;;;;;;5.78;3.85;;;;;;;;;;5094491;28;20040;-69
2022/06/05 12:01:24;;;;;;;6.13;3.83;;;;;;;;;;5094108;28;20077;-71
2022/06/05 12:04:18;;;;;;;8.40;3.80;;;;;;;;;;5094176;28;20035;-68
2022/06/05 12:07:00;;;;;;;7.57;4.20;;;;;;;;;;5093855;28;20458;-68
2022/06/05 12:09:29;;;;;;;12.13;4.32;;;;;;;;;;5094130;28;20028;-68
2022/06/05 12:12:05;;;;;;;8.02;3.78;;;;;;;;;;5095378;28;20036;-70
2022/06/05 12:14:57;;;;;;;9.80;4.30;;;;;;;;;;5094347;28;20494;-68
2022/06/05 12:17:39;;;;;;;8.07;4.30;;;;;;;;;;5088042;28;20130;-71
2022/06/05 12:20:28;;;;;;;13.43;4.25;;;;;;;;;;5092021;28;20054;-68
2022/06/05 12:23:10;;;;;;;9.85;4.15;;;;;;;;;;5093736;28;20032;-69
2022/06/05 12:26:02;;;;;;;8.65;3.85;;;;;;;;;;5093778;28;20043;-67
2022/06/05 12:28:39;;;;;;;10.32;4.97;;;;;;;;;;5093467;28;20398;-67
2022/06/05 12:31:13;;;;;;;9.07;4.35;;;;;;;;;;5093641;28;20074;-67
2022/06/05 12:33:55;;;;;;;9.15;4.28;;;;;;;;;;5093562;28;20028;-67
2022/06/05 12:36:32;;;;;;;10.73;4.80;;;;;;;;;;5092652;28;20039;-67
2022/06/05 12:39:01;;;;;;;10.10;4.72;;;;;;;;;;5075389;28;20036;-68
2022/06/05 12:41:51;;;;;;;6.25;4.20;;;;;;;;;;5093022;28;20498;-68
2022/06/05 12:44:23;;;;;;;7.85;4.20;;;;;;;;;;5093183;28;20103;-67
2022/06/05 12:47:13;;;;;;;7.00;4.32;;;;;;;;;;5092820;28;20478;-68
2022/06/05 12:49:54;;;;;;;7.43;4.00;;;;;;;;;;5093539;28;20109;-71
2022/06/05 12:52:35;;;;;;;12.63;4.65;;;;;;;;;;5093289;28;20122;-69
2022/06/05 12:55:21;;;;;;;10.23;4.50;;;;;;;;;;5093524;28;20436;-72
2022/06/05 12:57:50;;;;;;;8.80;4.53;;;;;;;;;;5108896;28;20036;-68
2022/06/05 13:00:40;;;;;;;7.03;4.68;;;;;;;;;;5093460;28;20027;-68
2022/06/05 13:03:30;;;;;;;6.50;4.43;;;;;;;;;;5093039;28;20497;-69
2022/06/05 13:06:14;;;;;;;9.18;4.05;;;;;;;;;;5093270;28;20064;-68
2022/06/05 13:08:50;;;;;;;9.10;4.32;;;;;;;;;;5092979;28;20470;-68
2022/06/05 13:11:30;;;;;;;8.60;4.20;;;;;;;;;;5092900;28;20423;-68
2022/06/05 13:13:59;;;;;;;8.82;4.07;;;;;;;;;;5093016;28;20060;-68
2022/06/05 13:16:47;;;;;;;7.20;4.40;;;;;;;;;;5092950;28;20028;-68
2022/06/05 13:19:32;;;;;;;7.45;4.35;;;;;;;;;;5064297;28;20056;-68
2022/06/05 13:22:29;;;;;;;8.73;4.68;;;;;;;;;;5092902;28;20044;-68
2022/06/05 13:25:19;;;;;;;7.55;3.75;;;;;;;;;;5092657;28;20398;-67
2022/06/05 13:27:54;;;;;;;8.23;4.68;;;;;;;;;;5092865;28;20097;-68
2022/06/05 13:30:23;;;;;;;9.80;4.68;;;;;;;;;;5092901;28;20050;-68
2022/06/05 13:33:29;;;;;;;7.93;4.70;;;;;;;;;;5091523;28;20067;-68
2022/06/05 13:36:06;;;;;;;11.15;4.75;;;;;;;;;;5091843;28;20032;-68
2022/06/05 13:38:47;;;;;;;8.80;4.70;;;;;;;;;;5092932;28;20127;-68
2022/06/05 13:41:26;;;;;;;7.82;4.35;;;;;;;;;;5092806;28;20028;-73
2022/06/05 13:44:04;;;;;;;8.77;4.80;;;;;;;;;;5092745;28;20447;-70
2022/06/05 13:46:38;;;;;;;8.43;4.30;;;;;;;;;;5092696;28;20043;-67
2022/06/05 13:49:26;;;;;;;8.45;4.07;;;;;;;;;;5092722;28;20077;-68
2022/06/05 13:52:00;;;;;;;7.20;4.60;;;;;;;;;;5092583;28;20425;-69
2022/06/05 13:54:42;;;;;;;8.43;4.25;;;;;;;;;;5092645;28;20531;-68
2022/06/05 13:57:31;;;;;;;8.07;4.35;;;;;;;;;;5092644;28;20040;-68
2022/06/05 14:00:06;;;;;;;7.70;4.53;;;;;;;;;;5088093;28;20083;-69
2022/06/05 14:02:42;;;;;;;8.48;4.13;;;;;;;;;;5097727;28;20093;-67
2022/06/05 14:05:21;;;;;;;7.72;4.28;;;;;;;;;;5096751;28;20130;-68
2022/06/05 14:07:50;;;;;;;7.35;4.32;;;;;;;;;;5096639;28;20526;-67
2022/06/05 14:10:21;;;;;;;8.02;4.07;;;;;;;;;;5096440;28;20016;-67
2022/06/05 14:12:56;;;;;;;11.20;4.80;;;;;;;;;;5096496;28;20067;-67
2022/06/05 14:15:30;;;;;;;6.03;4.38;;;;;;;;;;5096478;28;20066;-70
2022/06/05 14:17:59;;;;;;;9.23;4.55;;;;;;;;;;5096034;28;20032;-71
2022/06/05 14:20:32;;;;;;;7.85;4.28;;;;;;;;;;5096012;28;20032;-67
2022/06/05 14:23:01;;;;;;;8.45;4.45;;;;;;;;;;5096104;28;20101;-68
2022/06/05 14:25:40;;;;;;;7.80;4.72;;;;;;;;;;5096130;28;20443;-67
2022/06/05 14:28:10;;;;;;;10.77;4.57;;;;;;;;;;5096232;28;20036;-69
2022/06/05 14:30:56;;;;;;;9.25;4.50;;;;;;;;;;5096319;28;20028;-67
2022/06/05 14:33:35;;;;;;;10.65;4.43;;;;;;;;;;5096133;28;20028;-66
2022/06/05 14:36:03;;;;;;;11.73;4.95;;;;;;;;;;5096084;28;20032;-75
2022/06/05 14:38:31;;;;;;;9.45;4.47;;;;;;;;;;5097863;28;20478;-72
2022/06/05 14:41:11;;;;;;;9.73;4.50;;;;;;;;;;5095862;28;20036;-74
2022/06/05 14:43:40;;;;;;;9.88;4.40;;;;;;;;;;5095907;28;20062;-70
2022/06/05 14:46:24;;;;;;;7.65;4.40;;;;;;;;;;5095623;28;20051;-71
2022/06/05 14:49:12;;;;;;;5.03;4.10;;;;;;;;;;5095950;28;20082;-77
2022/06/05 14:51:44;;;;;;;12.93;4.72;;;;;;;;;;5095667;28;20119;-70
2022/06/05 14:57:51;;;;;;;;;;;;;;;;;;5095920;28;20055;-70
2022/06/05 15:00:15;;;;;;;;;;;;;;;;;;5095987;28;20097;-71
2022/06/05 15:02:50;;;;;;;9.32;4.53;;;;;;;;;;5095336;28;19916;-73
2022/06/05 15:05:24;;;;;;;8.07;3.80;;;;;;;;;;5094918;28;20040;-68
2022/06/05 15:07:59;;;;;;;9.50;3.88;;;;;;;;;;5095158;28;20454;-68
2022/06/05 15:10:39;;;;;;;9.52;4.28;;;;;;;;;;5095107;28;20042;-68
2022/06/05 15:13:37;;;;;;;6.68;4.15;;;;;;;;;;5094949;28;20038;-69
2022/06/05 15:16:18;;;;;;;7.07;4.15;;;;;;;;;;5091776;28;20044;-68
2022/06/05 15:18:48;;;;;;;8.48;4.13;;;;;;;;;;5094882;28;20558;-70
2022/06/05 15:21:44;;;;;;;7.40;3.95;;;;;;;;;;5094563;28;20047;-77
2022/06/05 15:24:25;;;;;;;7.57;3.90;;;;;;;;;;5092819;28;20111;-75
2022/06/05 15:27:16;;;;;;;6.53;3.95;;;;;;;;;;5083151;28;20040;-73
2022/06/05 15:29:47;;;;;;;4.78;3.58;;;;;;;;;;5074461;28;20493;-72
2022/06/05 15:32:23;;;;;;;8.02;4.22;;;;;;;;;;5074230;28;20032;-72
2022/06/05 15:35:10;;;;;;;8.48;3.90;;;;;;;;;;5074362;28;20550;-72
2022/06/05 15:37:44;;;;;;;6.80;3.63;;;;;;;;;;5074039;28;20029;-70